Time;durP1;ratioP1;P1;durP2;ratioP2;P2;SDS_P1;SDS_P2;PMS_P1;PMS_P2;Temp;Humidity;BMP_temperature;BMP_pressure;BME280_temperature;BME280_humidity;BME280_pressure;Samples;Min_cycle;Max_cycle;Signal;HPM_P1;HPM_P2
2022/04/04 00:02:14;;;;;;;1.15;1.00;;;16.40;48.60;;;;;;5153092;27;20192;-68
2022/04/04 00:04:40;;;;;;;1.40;1.00;;;16.40;48.60;;;;;;5154060;27;20300;-69
2022/04/04 00:07:05;;;;;;;1.17;1.05;;;16.30;48.60;;;;;;5154008;27;20255;-70
2022/04/04 00:09:31;;;;;;;1.00;1.00;;;16.30;48.60;;;;;;5153412;27;20175;-71
2022/04/04 00:11:56;;;;;;;1.23;1.13;;;16.30;48.60;;;;;;5154225;27;20175;-71
2022/04/04 00:14:22;;;;;;;0.93;0.90;;;16.30;48.60;;;;;;5153656;27;20175;-72
2022/04/04 00:16:47;;;;;;;1.23;1.13;;;16.30;48.60;;;;;;5153285;27;20583;-70
2022/04/04 00:19:14;;;;;;;0.85;0.85;;;16.20;48.60;;;;;;5153577;27;20277;-71
2022/04/04 00:21:40;;;;;;;1.00;0.90;;;16.30;49.30;;;;;;5153752;27;20271;-69
2022/04/04 00:24:06;;;;;;;1.13;1.10;;;16.20;48.60;;;;;;5152923;27;20168;-70
2022/04/04 00:26:31;;;;;;;2.20;1.10;;;16.30;48.60;;;;;;5153822;27;20178;-71
2022/04/04 00:28:57;;;;;;;1.15;1.10;;;16.20;48.60;;;;;;5153743;27;20221;-70
2022/04/04 00:31:22;;;;;;;1.23;1.13;;;16.20;48.60;;;;;;5152545;27;20573;-70
2022/04/04 00:33:48;;;;;;;1.20;1.10;;;16.20;48.60;;;;;;5153577;27;20267;-68
2022/04/04 00:36:13;;;;;;;0.90;0.90;;;16.20;48.60;;;;;;5153208;27;20179;-69
2022/04/04 00:38:39;;;;;;;1.02;1.00;;;16.20;48.60;;;;;;5153154;27;20179;-69
2022/04/04 00:41:09;;;;;;;1.85;1.05;;;16.10;48.60;;;;;;5153497;27;20178;-70
2022/04/04 00:43:34;;;;;;;1.20;1.00;;;16.20;48.60;;;;;;5153792;27;20246;-70
2022/04/04 00:46:06;;;;;;;1.10;1.00;;;16.10;48.60;;;;;;5152795;27;20609;-69
2022/04/04 00:48:31;;;;;;;1.05;1.00;;;16.10;48.70;;;;;;5152637;27;20187;-71
2022/04/04 00:50:57;;;;;;;0.98;0.95;;;16.10;48.70;;;;;;5152923;27;20182;-71
2022/04/04 00:53:23;;;;;;;1.10;1.00;;;16.10;48.70;;;;;;5153098;27;20182;-69
2022/04/04 00:55:48;;;;;;;0.88;0.88;;;16.10;48.60;;;;;;5134779;27;20178;-69
2022/04/04 00:58:14;;;;;;;1.52;1.30;;;16.10;48.70;;;;;;5152167;27;20225;-69
2022/04/04 01:00:43;;;;;;;1.42;1.02;;;16.10;48.70;;;;;;5153264;27;20172;-70
2022/04/04 01:03:09;;;;;;;0.82;0.82;;;16.00;48.60;;;;;;5135117;27;20256;-69
2022/04/04 01:05:34;;;;;;;0.90;0.90;;;16.00;48.70;;;;;;5159629;27;20171;-69
2022/04/04 01:08:00;;;;;;;1.33;1.05;;;16.00;48.60;;;;;;5160486;27;20220;-70
2022/04/04 01:10:28;;;;;;;1.10;1.10;;;16.00;48.60;;;;;;5159966;27;20172;-73
2022/04/04 01:12:54;;;;;;;0.95;0.93;;;16.00;48.60;;;;;;5159538;27;20202;-74
2022/04/04 01:15:20;;;;;;;1.35;0.93;;;16.00;48.70;;;;;;5159974;27;20167;-71
2022/04/04 01:17:46;;;;;;;1.13;1.02;;;16.00;48.70;;;;;;5160060;27;20178;-71
2022/04/04 01:20:12;;;;;;;1.10;1.00;;;16.00;48.70;;;;;;5159016;27;20255;-70
2022/04/04 01:22:38;;;;;;;1.20;1.10;;;16.00;48.70;;;;;;5160156;27;20214;-72
2022/04/04 01:25:05;;;;;;;1.90;1.17;;;15.90;48.70;;;;;;5160198;27;20227;-72
2022/04/04 01:27:30;;;;;;;1.05;1.00;;;15.90;48.70;;;;;;5159265;27;20232;-71
2022/04/04 01:29:59;;;;;;;1.17;1.08;;;15.90;48.70;;;;;;5159924;27;20211;-70
2022/04/04 01:32:24;;;;;;;1.08;0.98;;;15.90;48.70;;;;;;5159881;27;20211;-69
2022/04/04 01:34:50;;;;;;;1.23;1.10;;;15.90;48.70;;;;;;5159505;27;20203;-68
2022/04/04 01:37:15;;;;;;;1.20;1.00;;;15.90;48.70;;;;;;5159924;27;20250;-69
2022/04/04 01:39:41;;;;;;;1.20;1.10;;;15.90;48.70;;;;;;5160210;27;20694;-69
2022/04/04 01:42:07;;;;;;;1.30;1.20;;;15.90;48.70;;;;;;5158915;27;20216;-70
2022/04/04 01:44:32;;;;;;;1.40;1.15;;;15.80;48.70;;;;;;5159986;27;20176;-69
2022/04/04 01:46:58;;;;;;;1.23;1.10;;;15.80;48.60;;;;;;5159176;27;20622;-70
2022/04/04 01:49:27;;;;;;;1.52;1.13;;;15.80;48.60;;;;;;5159656;27;20252;-70
2022/04/04 01:51:52;;;;;;;1.20;1.10;;;15.80;48.60;;;;;;5160069;27;20304;-69
2022/04/04 01:54:18;;;;;;;0.98;0.98;;;15.80;49.30;;;;;;5157927;27;20183;-71
2022/04/04 01:56:43;;;;;;;1.48;1.15;;;15.80;48.70;;;;;;5159694;27;20222;-69
2022/04/04 01:59:09;;;;;;;0.95;0.95;;;15.80;48.60;;;;;;5159627;27;20164;-70
2022/04/04 02:01:35;;;;;;;1.52;1.20;;;15.80;48.70;;;;;;5158919;27;20607;-69
2022/04/04 02:04:01;;;;;;;1.23;1.02;;;15.80;48.60;;;;;;5159621;27;20274;-69
2022/04/04 02:06:28;;;;;;;1.30;1.20;;;15.70;48.60;;;;;;5159351;27;20603;-71
2022/04/04 02:08:53;;;;;;;1.40;1.30;;;15.70;48.60;;;;;;5159213;27;20199;-72
2022/04/04 02:11:20;;;;;;;1.42;1.33;;;15.70;48.60;;;;;;5159474;27;20213;-71
2022/04/04 02:13:45;;;;;;;1.45;1.35;;;15.70;48.50;;;;;;5159748;27;20164;-71
2022/04/04 02:16:11;;;;;;;1.27;1.15;;;15.70;48.40;;;;;;5155279;27;20706;-71
2022/04/04 02:18:36;;;;;;;1.02;1.02;;;15.70;48.60;;;;;;5156273;27;20187;-72
2022/04/04 02:21:02;;;;;;;2.15;1.10;;;15.70;48.60;;;;;;5156383;27;20190;-70
2022/04/04 02:23:28;;;;;;;1.17;1.10;;;15.60;48.50;;;;;;5156112;27;20199;-70
2022/04/04 02:25:58;;;;;;;1.77;1.25;;;15.60;48.40;;;;;;5157269;27;20251;-70
2022/04/04 02:28:24;;;;;;;1.35;1.10;;;15.60;48.40;;;;;;5156593;27;20649;-70
2022/04/04 02:30:49;;;;;;;1.27;1.20;;;15.60;48.40;;;;;;5156392;27;20174;-70
2022/04/04 02:33:16;;;;;;;1.60;1.17;;;15.60;48.40;;;;;;5156832;27;20168;-69
2022/04/04 02:35:41;;;;;;;1.25;1.20;;;15.60;48.40;;;;;;5157072;27;20179;-69
2022/04/04 02:38:07;;;;;;;1.02;0.90;;;15.60;48.40;;;;;;5156059;27;20171;-68
2022/04/04 02:40:33;;;;;;;1.55;1.10;;;15.60;48.40;;;;;;5156868;27;20167;-71
2022/04/04 02:42:58;;;;;;;1.13;1.02;;;15.60;48.40;;;;;;5156651;27;20662;-70
2022/04/04 02:45:24;;;;;;;1.40;1.17;;;15.60;48.40;;;;;;5155676;27;20200;-69
2022/04/04 02:47:50;;;;;;;0.90;0.90;;;15.50;48.20;;;;;;5156869;27;20254;-69
2022/04/04 02:50:15;;;;;;;1.17;1.10;;;15.50;48.20;;;;;;5155815;27;20180;-69
2022/04/04 02:52:41;;;;;;;1.30;1.20;;;15.50;48.30;;;;;;5156796;27;20184;-72
2022/04/04 02:57:57;;;;;;;1.10;1.00;;;15.50;48.30;;;;;;5155745;27;20246;-68
2022/04/04 03:00:24;;;;;;;2.10;1.20;;;15.50;48.30;;;;;;5156306;27;20191;-70
2022/04/04 03:02:50;;;;;;;1.33;1.23;;;15.50;48.30;;;;;;5156501;27;20219;-69
2022/04/04 03:05:16;;;;;;;1.27;1.17;;;15.40;48.20;;;;;;5155385;27;20172;-70
2022/04/04 03:07:42;;;;;;;1.55;1.20;;;15.40;48.20;;;;;;5156317;27;20179;-70
2022/04/04 03:10:08;;;;;;;1.20;1.10;;;15.40;48.30;;;;;;5155889;27;20167;-71
2022/04/04 03:12:33;;;;;;;2.10;1.27;;;15.50;48.20;;;;;;5155544;27;20210;-72
2022/04/04 03:14:59;;;;;;;1.23;1.08;;;15.40;48.20;;;;;;5137645;27;20175;-71
2022/04/04 03:17:25;;;;;;;1.00;1.00;;;15.40;48.30;;;;;;5155892;27;20301;-70
2022/04/04 03:19:51;;;;;;;0.90;0.88;;;15.40;48.30;;;;;;5155165;27;20579;-69
2022/04/04 03:22:17;;;;;;;2.05;1.17;;;15.40;48.20;;;;;;5155573;27;20211;-70
2022/04/04 03:24:43;;;;;;;1.50;1.35;;;15.40;48.20;;;;;;5155790;27;20210;-72
2022/04/04 03:27:09;;;;;;;1.27;0.95;;;15.40;48.20;;;;;;5153841;27;20203;-70
2022/04/04 03:29:34;;;;;;;1.33;1.00;;;15.40;48.20;;;;;;5156126;27;20251;-71
2022/04/04 03:32:00;;;;;;;1.27;1.20;;;15.40;48.20;;;;;;5155835;27;20631;-69
2022/04/04 03:34:26;;;;;;;1.25;1.15;;;15.40;48.30;;;;;;5154686;27;20172;-68
2022/04/04 03:36:52;;;;;;;1.33;1.10;;;15.30;48.20;;;;;;5155719;27;20175;-71
2022/04/04 03:39:18;;;;;;;1.50;1.40;;;15.40;48.20;;;;;;5155326;27;20266;-69
2022/04/04 03:41:45;;;;;;;1.48;1.30;;;15.30;48.20;;;;;;5154984;27;20263;-69
2022/04/04 03:44:11;;;;;;;1.30;1.20;;;15.30;48.20;;;;;;5155543;27;20183;-69
2022/04/04 03:46:38;;;;;;;0.93;0.93;;;15.30;48.20;;;;;;5154845;27;20180;-70
2022/04/04 03:49:04;;;;;;;1.20;1.10;;;15.30;48.20;;;;;;5155638;27;20622;-69
2022/04/04 03:51:30;;;;;;;2.47;1.20;;;15.30;48.20;;;;;;5155129;27;20168;-69
2022/04/04 03:53:55;;;;;;;1.50;1.35;;;15.30;48.10;;;;;;5154518;27;20171;-71
2022/04/04 03:56:21;;;;;;;1.55;1.40;;;15.30;48.10;;;;;;5155175;27;20253;-69
2022/04/04 03:58:46;;;;;;;1.38;1.27;;;15.30;48.10;;;;;;5155021;27;20591;-69
2022/04/04 04:01:12;;;;;;;1.15;1.05;;;15.30;48.10;;;;;;5154167;27;20634;-69
2022/04/04 04:03:37;;;;;;;1.27;1.27;;;15.20;48.10;;;;;;5155320;27;20190;-69
2022/04/04 04:06:16;;;;;;;1.15;1.15;;;15.20;48.10;;;;;;5155215;27;20184;-69
2022/04/04 04:08:46;;;;;;;1.42;1.33;;;15.20;48.10;;;;;;5154392;27;20651;-70
2022/04/04 04:11:13;;;;;;;1.73;1.50;;;15.20;48.00;;;;;;5154925;27;20175;-72
2022/04/04 04:13:40;;;;;;;1.42;1.10;;;15.20;48.10;;;;;;5155123;27;20172;-71
2022/04/04 04:16:09;;;;;;;1.45;1.35;;;15.20;48.00;;;;;;5154113;27;20178;-70
2022/04/04 04:18:35;;;;;;;1.58;1.40;;;15.20;48.00;;;;;;5154999;27;20188;-70
2022/04/04 04:21:00;;;;;;;1.73;1.25;;;15.20;48.00;;;;;;5154768;27;20270;-69
2022/04/04 04:23:26;;;;;;;1.45;1.35;;;15.10;48.00;;;;;;5153886;27;20219;-71
2022/04/04 04:25:51;;;;;;;1.45;1.30;;;15.10;48.00;;;;;;5154925;27;20213;-70
2022/04/04 04:28:18;;;;;;;1.98;1.25;;;15.10;48.00;;;;;;5154662;27;20172;-70
2022/04/04 04:30:44;;;;;;;1.50;1.40;;;15.10;48.00;;;;;;5154229;27;20250;-70
2022/04/04 04:33:09;;;;;;;1.50;1.40;;;15.10;48.00;;;;;;5154366;27;20301;-69
2022/04/04 04:35:41;;;;;;;1.50;1.40;;;15.10;47.90;;;;;;5154653;27;20642;-68
2022/04/04 04:38:07;;;;;;;1.30;1.20;;;15.10;47.90;;;;;;5153372;27;20184;-70
2022/04/04 04:40:33;;;;;;;1.88;1.50;;;15.10;47.90;;;;;;5154723;27;20180;-69
2022/04/04 04:42:59;;;;;;;1.70;1.48;;;15.10;47.90;;;;;;5153801;27;20241;-70
2022/04/04 04:45:24;;;;;;;1.88;1.40;;;15.10;47.90;;;;;;5154196;27;20549;-69
2022/04/04 04:47:50;;;;;;;1.60;1.50;;;15.10;47.90;;;;;;5154409;27;20184;-69
2022/04/04 04:50:16;;;;;;;1.45;1.35;;;15.10;47.90;;;;;;5153308;27;20626;-69
2022/04/04 04:52:42;;;;;;;1.73;1.50;;;15.00;47.90;;;;;;5154521;27;20179;-69
2022/04/04 04:55:08;;;;;;;1.77;1.50;;;15.00;47.80;;;;;;5154267;27;20179;-70
2022/04/04 04:57:34;;;;;;;2.30;1.40;;;15.00;47.80;;;;;;5153762;27;20272;-69
2022/04/04 05:00:03;;;;;;;1.73;1.63;;;15.00;47.80;;;;;;5154444;27;20657;-68
2022/04/04 05:02:28;;;;;;;1.40;1.30;;;15.10;47.90;;;;;;5153903;27;20203;-69
2022/04/04 05:04:54;;;;;;;1.63;1.52;;;15.10;47.70;;;;;;5153454;27;20266;-69
2022/04/04 05:07:20;;;;;;;1.25;1.20;;;15.20;47.70;;;;;;5154104;27;20178;-69
2022/04/04 05:09:45;;;;;;;1.35;1.20;;;15.30;47.60;;;;;;5154182;27;20322;-73
2022/04/04 05:12:11;;;;;;;1.77;1.60;;;15.40;47.50;;;;;;5153507;27;20184;-71
2022/04/04 05:14:37;;;;;;;1.33;1.23;;;15.70;47.30;;;;;;5154331;27;20186;-72
2022/04/04 05:17:06;;;;;;;1.02;1.02;;;15.90;47.00;;;;;;5154305;27;20190;-72
2022/04/04 05:19:32;;;;;;;1.35;1.20;;;16.10;46.60;;;;;;5153408;27;20608;-69
2022/04/04 05:21:57;;;;;;;1.45;1.30;;;16.50;46.10;;;;;;5154216;27;20297;-70
2022/04/04 05:24:23;;;;;;;1.33;1.20;;;16.80;45.60;;;;;;5153864;27;20171;-70
2022/04/04 05:26:48;;;;;;;3.00;1.20;;;17.10;45.10;;;;;;5153541;27;20195;-72
2022/04/04 05:29:17;;;;;;;1.30;1.20;;;17.30;44.70;;;;;;5153810;27;20203;-70
2022/04/04 05:31:43;;;;;;;1.20;1.10;;;17.50;44.40;;;;;;5153916;27;20183;-69
2022/04/04 05:34:08;;;;;;;1.17;1.08;;;17.60;44.20;;;;;;5153080;27;20188;-69
2022/04/04 05:36:34;;;;;;;1.52;1.38;;;17.70;44.10;;;;;;5154105;27;20580;-69
2022/04/04 05:39:00;;;;;;;1.35;1.25;;;17.70;44.10;;;;;;5153859;27;20180;-68
2022/04/04 05:41:27;;;;;;;1.20;1.10;;;17.70;44.20;;;;;;5153383;27;20172;-68
2022/04/04 05:43:53;;;;;;;1.58;1.17;;;17.60;44.30;;;;;;5154060;27;20180;-68
2022/04/04 05:46:18;;;;;;;1.33;1.13;;;17.50;44.50;;;;;;5152887;27;20259;-69
2022/04/04 05:48:44;;;;;;;1.38;1.27;;;17.40;44.60;;;;;;5154077;27;20240;-69
2022/04/04 05:51:10;;;;;;;2.28;1.25;;;17.40;44.70;;;;;;5156029;27;20634;-70
2022/04/04 05:53:36;;;;;;;1.20;1.10;;;17.30;44.90;;;;;;5157080;27;20258;-69
2022/04/04 05:56:02;;;;;;;1.30;1.20;;;17.20;45.00;;;;;;5157718;27;20172;-68
2022/04/04 05:58:27;;;;;;;1.27;1.17;;;17.10;45.20;;;;;;5157071;27;20223;-68
2022/04/04 06:00:53;;;;;;;1.48;1.38;;;17.00;45.20;;;;;;5156877;27;20183;-68
2022/04/04 06:03:19;;;;;;;1.60;1.50;;;17.00;45.30;;;;;;5157239;27;20210;-68
2022/04/04 06:05:46;;;;;;;1.73;1.20;;;16.90;45.40;;;;;;5157706;27;20659;-69
2022/04/04 06:08:12;;;;;;;1.42;1.20;;;16.90;45.40;;;;;;5156665;27;20179;-70
2022/04/04 06:10:37;;;;;;;1.42;1.33;;;17.10;45.70;;;;;;5157428;27;20175;-71
2022/04/04 06:13:03;;;;;;;1.40;1.30;;;17.20;45.20;;;;;;5157341;27;20178;-72
2022/04/04 06:15:28;;;;;;;1.52;1.40;;;17.20;45.10;;;;;;5156130;27;20590;-69
2022/04/04 06:17:57;;;;;;;2.30;1.40;;;17.40;45.00;;;;;;5157077;27;20322;-69
2022/04/04 06:20:22;;;;;;;1.48;1.38;;;17.50;44.90;;;;;;5157125;27;20180;-73
2022/04/04 06:22:48;;;;;;;1.90;1.42;;;17.60;44.70;;;;;;5156678;27;20215;-70
2022/04/04 06:25:14;;;;;;;1.30;1.20;;;17.70;44.80;;;;;;5156787;27;20164;-69
2022/04/04 06:27:40;;;;;;;2.75;1.30;;;17.90;44.80;;;;;;5157182;27;20292;-69
2022/04/04 06:30:06;;;;;;;2.28;1.20;;;18.00;44.70;;;;;;5156083;27;20203;-69
2022/04/04 06:32:32;;;;;;;2.67;1.30;;;18.10;44.50;;;;;;5156866;27;20669;-69
2022/04/04 06:34:57;;;;;;;1.83;1.23;;;18.30;44.40;;;;;;5157133;27;20176;-68
2022/04/04 06:37:23;;;;;;;2.28;1.40;;;18.40;44.30;;;;;;5156018;27;20176;-67
2022/04/04 06:39:48;;;;;;;3.28;1.52;;;18.50;44.10;;;;;;5157034;27;20176;-67
2022/04/04 06:42:14;;;;;;;3.35;1.60;;;18.40;44.10;;;;;;5155530;27;20694;-70
2022/04/04 06:44:39;;;;;;;3.80;1.23;;;18.40;44.20;;;;;;5155990;27;20183;-69
2022/04/04 06:47:05;;;;;;;1.63;1.33;;;18.50;44.20;;;;;;5156364;27;20219;-71
2022/04/04 06:49:31;;;;;;;4.57;1.55;;;18.50;44.20;;;;;;5155879;27;20171;-73
2022/04/04 06:51:59;;;;;;;3.88;1.83;;;18.50;44.20;;;;;;5156654;27;20246;-69
2022/04/04 06:54:25;;;;;;;3.90;1.55;;;18.60;44.00;;;;;;5156398;27;20172;-72
2022/04/04 06:56:52;;;;;;;4.68;1.60;;;18.60;44.00;;;;;;5155585;27;20219;-71
2022/04/04 06:59:17;;;;;;;3.33;1.60;;;18.60;43.90;;;;;;5156085;27;20596;-71
2022/04/04 07:01:43;;;;;;;3.83;1.10;;;18.60;44.00;;;;;;5156252;27;20746;-70
2022/04/04 07:04:10;;;;;;;2.05;1.20;;;18.50;44.20;;;;;;5155440;27;20604;-71
2022/04/04 07:06:36;;;;;;;2.08;1.42;;;18.30;44.40;;;;;;5156204;27;20615;-68
2022/04/04 07:09:01;;;;;;;4.05;1.50;;;18.20;44.60;;;;;;5156468;27;20267;-71
2022/04/04 07:11:27;;;;;;;3.97;1.40;;;18.20;44.70;;;;;;5155218;27;20329;-72
2022/04/04 07:13:59;;;;;;;2.50;1.70;;;18.10;44.80;;;;;;5156185;27;20642;-73
2022/04/04 07:16:31;;;;;;;4.78;1.38;;;18.20;44.80;;;;;;5156029;27;20172;-70
2022/04/04 07:18:56;;;;;;;2.45;1.45;;;18.20;44.80;;;;;;5155485;27;20172;-72
2022/04/04 07:21:22;;;;;;;1.85;1.30;;;18.20;44.70;;;;;;5155647;27;20171;-68
2022/04/04 07:23:49;;;;;;;2.08;1.33;;;18.30;44.60;;;;;;5156021;27;20227;-69
2022/04/04 07:26:19;;;;;;;1.90;1.33;;;18.40;44.50;;;;;;5155005;27;20228;-69
2022/04/04 07:28:45;;;;;;;1.77;1.30;;;18.40;44.40;;;;;;5156037;27;20194;-69
2022/04/04 07:31:11;;;;;;;3.15;1.20;;;18.30;44.50;;;;;;5155650;27;20270;-69
2022/04/04 07:33:36;;;;;;;1.95;1.40;;;18.30;44.60;;;;;;5155314;27;20258;-68
2022/04/04 07:36:02;;;;;;;1.90;1.45;;;18.20;44.70;;;;;;5155726;27;20164;-69
2022/04/04 07:38:28;;;;;;;2.45;1.33;;;18.10;44.80;;;;;;5155174;27;20645;-69
2022/04/04 07:40:53;;;;;;;2.17;1.27;;;18.10;44.80;;;;;;5154765;27;20175;-75
2022/04/04 07:43:21;;;;;;;2.28;1.33;;;18.10;44.90;;;;;;5155075;27;20223;-74
2022/04/04 07:45:47;;;;;;;3.20;1.77;;;18.00;44.90;;;;;;5155010;27;20187;-75
2022/04/04 07:48:13;;;;;;;7.05;1.60;;;18.00;44.80;;;;;;5155024;27;20537;-75
2022/04/04 07:50:38;;;;;;;5.00;1.45;;;18.10;44.80;;;;;;5155544;27;20187;-75
2022/04/04 07:53:04;;;;;;;3.47;1.70;;;18.10;44.70;;;;;;5154844;27;20168;-74
2022/04/04 07:55:30;;;;;;;6.57;1.55;;;18.10;44.60;;;;;;5154925;27;20176;-75
2022/04/04 07:57:55;;;;;;;4.45;1.52;;;18.10;44.50;;;;;;5155089;27;20287;-74
2022/04/04 08:00:24;;;;;;;2.55;1.25;;;18.10;44.50;;;;;;5154356;27;20210;-73
2022/04/04 08:02:50;;;;;;;2.88;1.45;;;18.00;45.30;;;;;;5155245;27;20219;-74
2022/04/04 08:05:16;;;;;;;3.47;1.52;;;17.90;44.70;;;;;;5154895;27;20175;-74
2022/04/04 08:07:44;;;;;;;1.98;1.33;;;17.80;45.00;;;;;;5154568;27;20168;-75
2022/04/04 08:10:10;;;;;;;1.40;1.30;;;17.70;45.10;;;;;;5154590;27;20630;-74
2022/04/04 08:12:36;;;;;;;2.50;1.33;;;17.70;45.20;;;;;;5154710;27;20224;-74
2022/04/04 08:15:01;;;;;;;2.85;1.52;;;17.80;45.10;;;;;;5154086;27;20514;-74
2022/04/04 08:17:27;;;;;;;2.25;1.50;;;17.80;45.10;;;;;;5154791;27;20228;-74
2022/04/04 08:19:52;;;;;;;3.10;1.70;;;17.90;45.00;;;;;;5155001;27;20159;-74
2022/04/04 08:22:18;;;;;;;2.15;1.48;;;18.00;44.90;;;;;;5153777;27;20673;-73
2022/04/04 08:24:44;;;;;;;2.67;1.45;;;18.00;44.80;;;;;;5154784;27;20172;-74
2022/04/04 08:27:10;;;;;;;2.28;1.35;;;18.10;44.70;;;;;;5154829;27;20181;-74
2022/04/04 08:29:36;;;;;;;2.65;1.27;;;18.20;44.50;;;;;;5153663;27;20176;-75
2022/04/04 08:32:02;;;;;;;2.28;1.55;;;18.20;44.40;;;;;;5154988;27;20180;-74
2022/04/04 08:34:28;;;;;;;2.65;1.45;;;18.30;44.20;;;;;;5154487;27;20206;-73
2022/04/04 08:36:54;;;;;;;2.45;1.40;;;18.30;44.10;;;;;;5153925;27;20258;-74
2022/04/04 08:39:19;;;;;;;2.10;1.30;;;18.40;44.10;;;;;;5154197;27;20262;-74
2022/04/04 08:41:45;;;;;;;3.58;2.05;;;18.40;44.00;;;;;;5154815;27;20300;-74
2022/04/04 08:44:11;;;;;;;2.13;1.63;;;18.40;43.90;;;;;;5153513;27;20239;-74
2022/04/04 08:46:36;;;;;;;2.50;1.30;;;18.40;43.80;;;;;;5119394;27;20666;-74
2022/04/04 08:49:04;;;;;;;1.45;1.15;;;18.50;43.80;;;;;;5118515;27;20264;-74
2022/04/04 08:51:29;;;;;;;1.83;1.20;;;18.50;43.70;;;;;;5154093;27;20186;-75
2022/04/04 08:53:55;;;;;;;2.45;1.48;;;18.50;43.70;;;;;;5154440;27;20176;-75
2022/04/04 08:56:23;;;;;;;1.77;1.40;;;18.50;43.60;;;;;;5153351;27;20681;-74
2022/04/04 08:58:49;;;;;;;4.25;1.70;;;18.50;43.60;;;;;;5154572;27;20198;-73
2022/04/04 09:01:14;;;;;;;1.90;1.40;;;18.60;43.50;;;;;;5154291;27;20195;-73
2022/04/04 09:03:40;;;;;;;2.85;1.40;;;18.50;43.60;;;;;;5154156;27;20200;-74
2022/04/04 09:06:05;;;;;;;1.55;1.10;;;18.40;43.60;;;;;;5135894;27;20171;-74
2022/04/04 09:08:44;;;;;;;4.13;1.77;;;18.30;43.90;;;;;;5154294;27;20541;-74
2022/04/04 09:11:10;;;;;;;1.90;1.20;;;18.20;44.00;;;;;;5153510;27;20326;-73
2022/04/04 09:13:35;;;;;;;2.88;1.40;;;18.20;44.20;;;;;;5154302;27;20216;-74
2022/04/04 09:16:02;;;;;;;2.45;1.50;;;18.10;44.20;;;;;;5154262;27;20184;-74
2022/04/04 09:18:37;;;;;;;3.65;1.52;;;18.10;44.30;;;;;;5153294;27;20190;-74
2022/04/04 09:21:22;;;;;;;3.78;1.70;;;18.10;44.40;;;;;;5154645;27;20171;-71
2022/04/04 09:23:48;;;;;;;2.08;1.23;;;18.10;44.40;;;;;;5136213;27;20195;-74
2022/04/04 09:26:40;;;;;;;1.88;1.45;;;18.10;44.30;;;;;;5157289;27;20182;-74
2022/04/04 09:29:12;;;;;;;1.63;1.45;;;18.20;44.30;;;;;;5158279;27;20179;-72
2022/04/04 09:32:05;;;;;;;1.70;1.45;;;18.20;44.30;;;;;;5158128;27;20278;-74
2022/04/04 09:34:57;;;;;;;2.63;1.40;;;18.20;44.30;;;;;;5144004;27;20183;-75
2022/04/04 09:37:23;;;;;;;2.10;1.30;;;18.20;44.20;;;;;;5158005;27;20221;-73
2022/04/04 09:39:50;;;;;;;2.05;1.40;;;18.20;44.20;;;;;;5157375;27;20267;-74
2022/04/04 09:42:16;;;;;;;1.88;1.20;;;18.20;44.20;;;;;;5157804;27;20246;-74
2022/04/04 09:44:55;;;;;;;1.33;1.20;;;18.10;44.30;;;;;;5158126;27;20172;-74
2022/04/04 09:47:20;;;;;;;2.88;1.77;;;18.00;44.50;;;;;;5157383;27;20548;-73
2022/04/04 09:49:46;;;;;;;1.50;1.17;;;18.00;44.60;;;;;;5139460;27;20175;-73
2022/04/04 09:52:11;;;;;;;1.60;1.50;;;17.90;44.80;;;;;;5157323;27;20188;-73
2022/04/04 09:54:37;;;;;;;2.05;1.00;;;18.00;44.90;;;;;;5139171;27;20160;-73
2022/04/04 09:57:13;;;;;;;1.35;1.20;;;18.00;44.80;;;;;;5121891;27;20219;-71
2022/04/04 09:59:39;;;;;;;2.13;1.10;;;18.10;44.70;;;;;;5157108;27;20243;-72
2022/04/04 10:02:05;;;;;;;1.17;1.08;;;18.10;44.70;;;;;;5157669;27;20653;-72
2022/04/04 10:04:33;;;;;;;1.20;1.10;;;18.10;44.60;;;;;;5156873;27;20188;-73
2022/04/04 10:07:04;;;;;;;2.70;1.30;;;18.20;44.50;;;;;;5157165;27;20187;-73
2022/04/04 10:09:29;;;;;;;1.52;1.20;;;18.20;44.60;;;;;;5122103;27;20578;-72
2022/04/04 10:11:55;;;;;;;0.98;0.88;;;18.30;44.60;;;;;;5122114;27;20244;-72
2022/04/04 10:14:20;;;;;;;3.88;1.30;;;18.30;44.50;;;;;;5137791;27;20176;-73
2022/04/04 10:16:46;;;;;;;1.42;1.33;;;18.20;44.50;;;;;;5157347;27;20172;-73
2022/04/04 10:19:11;;;;;;;1.63;1.40;;;18.20;44.50;;;;;;5138552;27;20171;-71
2022/04/04 10:21:37;;;;;;;2.00;1.42;;;18.10;44.60;;;;;;5156458;27;20207;-71
2022/04/04 10:24:03;;;;;;;2.50;1.50;;;18.00;44.70;;;;;;5157411;27;20521;-71
2022/04/04 10:26:33;;;;;;;4.18;1.83;;;18.00;44.80;;;;;;5121439;27;20214;-69
2022/04/04 10:29:12;;;;;;;2.90;2.10;;;18.00;45.00;;;;;;5156486;27;20176;-69
2022/04/04 10:31:52;;;;;;;1.92;1.38;;;18.00;45.00;;;;;;5157180;27;20235;-71
2022/04/04 10:34:23;;;;;;;1.83;1.25;;;18.10;45.00;;;;;;5156366;27;20179;-73
2022/04/04 10:36:56;;;;;;;2.55;1.70;;;18.10;45.00;;;;;;5155891;27;20180;-70
2022/04/04 10:39:34;;;;;;;4.00;1.67;;;18.20;44.90;;;;;;5156588;27;20526;-67
2022/04/04 10:42:00;;;;;;;4.13;1.48;;;18.20;45.00;;;;;;5156152;27;20290;-68
2022/04/04 10:44:44;;;;;;;1.48;1.38;;;18.30;45.00;;;;;;5137913;27;20646;-68
2022/04/04 10:47:20;;;;;;;1.52;1.42;;;18.20;45.10;;;;;;5156533;27;20635;-68
2022/04/04 10:49:46;;;;;;;2.80;1.35;;;18.30;45.20;;;;;;5156201;27;20239;-68
2022/04/04 10:52:12;;;;;;;2.33;1.20;;;18.20;45.30;;;;;;5136811;27;20169;-68
2022/04/04 10:54:40;;;;;;;1.73;1.20;;;18.20;45.30;;;;;;5135437;27;20297;-68
2022/04/04 10:57:16;;;;;;;3.35;1.10;;;18.20;46.10;;;;;;5134648;27;20228;-70
2022/04/04 10:59:45;;;;;;;0.80;0.80;;;18.20;45.50;;;;;;5135942;27;20168;-67
2022/04/04 11:02:11;;;;;;;2.03;1.13;;;18.30;45.50;;;;;;5135382;27;20235;-67
2022/04/04 11:04:37;;;;;;;3.53;1.40;;;18.30;45.50;;;;;;5099857;27;20233;-66
2022/04/04 11:09:53;;;;;;;2.03;1.23;;;18.40;45.50;;;;;;5135197;27;20211;-71
2022/04/04 11:12:24;;;;;;;4.57;1.45;;;18.40;45.60;;;;;;5135259;27;20185;-67
2022/04/04 11:14:57;;;;;;;3.97;1.35;;;18.40;45.50;;;;;;5135528;27;20230;-68
2022/04/04 11:17:40;;;;;;;3.30;1.50;;;18.20;45.50;;;;;;5134396;27;20173;-69
2022/04/04 11:20:39;;;;;;;2.08;1.10;;;18.20;45.70;;;;;;5133903;27;20237;-68
2022/04/04 11:23:10;;;;;;;2.58;1.20;;;18.10;45.70;;;;;;5135283;27;20204;-68
2022/04/04 11:25:54;;;;;;;2.97;1.20;;;18.00;46.00;;;;;;5116619;27;20172;-71
2022/04/04 11:28:38;;;;;;;3.13;1.20;;;18.00;46.10;;;;;;5134682;27;20286;-69
2022/04/04 11:31:07;;;;;;;3.72;1.50;;;18.00;46.50;;;;;;5134679;27;20176;-70
2022/04/04 11:33:54;;;;;;;5.47;1.50;;;18.10;46.20;;;;;;5135140;27;20210;-68
2022/04/04 11:36:27;;;;;;;3.03;1.35;;;18.10;46.10;;;;;;5134790;27;20180;-69
2022/04/04 11:39:01;;;;;;;1.95;0.90;;;18.10;46.10;;;;;;5134471;27;20199;-68
2022/04/04 11:44:26;;;;;;;1.25;1.10;;;18.00;46.20;;;;;;5120413;27;20200;-74
2022/04/04 11:47:05;;;;;;;4.25;1.33;;;17.90;46.20;;;;;;5134149;27;20211;-73
2022/04/04 11:49:35;;;;;;;1.55;0.90;;;17.90;46.10;;;;;;5133978;27;20183;-70
2022/04/04 11:52:24;;;;;;;2.60;1.10;;;17.90;46.20;;;;;;5134142;27;20184;-68
2022/04/04 11:55:10;;;;;;;5.80;1.30;;;18.00;46.30;;;;;;5117598;27;20188;-68
2022/04/04 11:57:36;;;;;;;3.28;1.88;;;18.00;46.40;;;;;;5134446;27;20304;-67
2022/04/04 12:00:10;;;;;;;2.80;1.25;;;18.00;46.30;;;;;;5115172;27;20233;-66
2022/04/04 12:05:23;;;;;;;4.32;1.55;;;18.00;46.50;;;;;;5130230;27;20176;-67
2022/04/04 12:08:10;;;;;;;1.58;1.15;;;17.90;46.60;;;;;;5133656;27;20180;-68
2022/04/04 12:10:37;;;;;;;4.18;1.20;;;17.90;46.80;;;;;;5120253;27;20560;-70
2022/04/04 12:13:07;;;;;;;3.90;1.10;;;17.90;46.80;;;;;;5133636;27;20180;-69
2022/04/04 12:15:34;;;;;;;4.43;1.30;;;17.90;46.80;;;;;;5134326;27;20172;-68
2022/04/04 12:18:00;;;;;;;2.55;1.10;;;18.00;46.60;;;;;;5134118;27;20184;-67
2022/04/04 12:20:31;;;;;;;1.65;0.85;;;18.00;47.20;;;;;;5133314;27;20176;-68
2022/04/04 12:25:40;;;;;;;1.45;1.10;;;18.00;46.50;;;;;;5104323;27;20176;-68
2022/04/04 12:28:06;;;;;;;2.13;1.30;;;17.90;46.60;;;;;;5114834;27;20539;-68
2022/04/04 12:30:36;;;;;;;1.85;1.10;;;17.80;46.70;;;;;;5133838;27;20175;-68
2022/04/04 12:33:14;;;;;;;3.53;1.02;;;17.90;46.70;;;;;;5133631;27;20195;-71
2022/04/04 12:35:47;;;;;;;3.10;1.10;;;17.90;46.80;;;;;;5133296;27;20666;-72
2022/04/04 12:38:36;;;;;;;2.60;1.35;;;17.90;46.70;;;;;;5133793;27;20255;-72
2022/04/04 12:41:15;;;;;;;1.90;1.10;;;18.00;46.60;;;;;;5133280;27;20658;-73
2022/04/04 12:43:43;;;;;;;1.65;1.15;;;17.90;46.50;;;;;;5134019;27;20695;-73
2022/04/04 12:46:26;;;;;;;2.47;1.00;;;17.90;46.50;;;;;;5133557;27;20177;-74
2022/04/04 12:48:52;;;;;;;1.85;1.00;;;17.90;46.50;;;;;;5132716;27;20623;-71
2022/04/04 12:51:29;;;;;;;2.28;1.10;;;17.80;46.60;;;;;;5134158;27;20165;-71
2022/04/04 12:53:54;;;;;;;4.25;1.10;;;17.70;46.90;;;;;;5134299;27;20183;-68
2022/04/04 12:56:23;;;;;;;2.05;1.25;;;17.60;46.90;;;;;;5132830;27;20168;-68
2022/04/04 12:59:22;;;;;;;2.15;0.90;;;17.70;47.40;;;;;;5133597;27;20188;-68
2022/04/04 13:02:27;;;;;;;3.45;1.25;;;17.90;47.60;;;;;;5089021;27;20627;-68
2022/04/04 13:05:13;;;;;;;2.75;1.33;;;18.00;47.60;;;;;;5092224;28;20187;-69
2022/04/04 13:07:54;;;;;;;4.10;0.85;;;18.10;47.60;;;;;;5133657;28;20183;-70